createdAt,value
2023-05-24T00:01:48.786Z,15.61
2023-05-24T00:04:53.447Z,15.57
2023-05-24T00:07:56.450Z,15.62
2023-05-24T00:10:59.511Z,15.59
2023-05-24T00:14:04.614Z,15.62
2023-05-24T00:17:07.388Z,15.67
2023-05-24T00:20:12.556Z,15.72
2023-05-24T00:23:15.363Z,15.74
2023-05-24T00:26:18.332Z,15.73
2023-05-24T00:29:31.434Z,15.70
2023-05-24T00:32:36.273Z,15.70
2023-05-24T00:35:39.604Z,15.65
2023-05-24T00:38:42.547Z,15.64
2023-05-24T00:41:45.476Z,15.72
2023-05-24T00:44:48.434Z,15.81
2023-05-24T00:47:51.251Z,15.81
2023-05-24T00:50:54.142Z,15.85
2023-05-24T00:53:57.263Z,15.85
2023-05-24T00:57:00.327Z,15.90
2023-05-24T01:00:05.718Z,15.87
2023-05-24T01:03:10.770Z,15.79
2023-05-24T01:06:13.865Z,15.90
2023-05-24T01:09:28.811Z,15.92
2023-05-24T01:12:47.553Z,15.85
2023-05-24T01:16:21.986Z,15.87
2023-05-24T01:19:49.522Z,15.76
2023-05-24T01:23:21.944Z,15.61
2023-05-24T01:26:54.647Z,15.66
2023-05-24T01:29:58.715Z,15.73
2023-05-24T01:33:03.499Z,15.79
2023-05-24T01:36:06.850Z,15.70
2023-05-24T01:39:10.252Z,15.66
2023-05-24T01:42:22.527Z,15.66
2023-05-24T01:45:56.996Z,15.57
2023-05-24T01:49:20.745Z,15.61
2023-05-24T01:52:27.091Z,15.62
2023-05-24T01:55:31.956Z,15.50
2023-05-24T01:58:35.613Z,15.54
2023-05-24T02:01:38.995Z,15.51
2023-05-24T02:04:42.174Z,15.44
2023-05-24T02:07:44.903Z,15.37
2023-05-24T02:10:47.702Z,15.41
2023-05-24T02:13:50.409Z,15.43
2023-05-24T02:16:53.612Z,15.46
2023-05-24T02:19:56.693Z,15.59
2023-05-24T02:23:00.449Z,15.63
2023-05-24T02:26:03.155Z,15.67
2023-05-24T02:29:06.611Z,15.71
2023-05-24T02:32:09.599Z,15.60
2023-05-24T02:35:12.719Z,15.65
2023-05-24T02:38:15.615Z,15.60
2023-05-24T02:41:19.566Z,15.42
2023-05-24T02:44:22.477Z,15.15
2023-05-24T02:47:27.333Z,15.15
2023-05-24T02:50:30.222Z,15.01
2023-05-24T02:53:33.742Z,14.90
2023-05-24T02:56:37.767Z,15.00
2023-05-24T02:59:40.613Z,14.90
2023-05-24T03:02:43.457Z,14.90
2023-05-24T03:05:46.458Z,14.78
2023-05-24T03:08:50.143Z,14.90
2023-05-24T03:11:54.779Z,15.02
2023-05-24T03:14:57.792Z,14.95
2023-05-24T03:18:01.277Z,14.97
2023-05-24T03:21:04.508Z,14.99
2023-05-24T03:24:07.674Z,14.97
2023-05-24T03:27:10.902Z,14.93
2023-05-24T03:30:13.973Z,14.89
2023-05-24T03:33:25.757Z,14.91
2023-05-24T03:36:31.504Z,14.99
2023-05-24T03:39:34.436Z,15.14
2023-05-24T03:42:51.278Z,15.22
2023-05-24T03:45:56.017Z,15.35
2023-05-24T03:48:58.955Z,15.42
2023-05-24T03:52:01.814Z,15.43
2023-05-24T03:55:05.022Z,15.39
2023-05-24T03:58:07.758Z,15.56
2023-05-24T04:01:21.936Z,15.53
2023-05-24T04:04:32.499Z,15.60
2023-05-24T04:07:35.406Z,15.76
2023-05-24T04:10:38.533Z,15.85
2023-05-24T04:13:41.749Z,17.49
2023-05-24T04:16:45.336Z,17.93
2023-05-24T04:19:48.389Z,18.95
2023-05-24T04:22:51.986Z,18.56
2023-05-24T04:25:55.144Z,18.30
2023-05-24T04:28:58.334Z,17.82
2023-05-24T04:32:01.480Z,17.37
2023-05-24T04:35:04.856Z,16.79
2023-05-24T04:38:08.104Z,16.20
2023-05-24T04:41:12.242Z,16.46
2023-05-24T04:44:15.295Z,16.10
2023-05-24T04:47:18.178Z,15.67
2023-05-24T04:50:21.001Z,15.69
2023-05-24T04:53:24.106Z,15.48
2023-05-24T04:56:27.419Z,15.29
2023-05-24T04:59:30.575Z,15.07
2023-05-24T05:02:33.471Z,15.03
2023-05-24T05:05:36.704Z,15.14
2023-05-24T05:08:39.606Z,15.22
2023-05-24T05:11:42.402Z,15.31
2023-05-24T05:14:45.396Z,15.49
2023-05-24T05:17:48.421Z,15.87
2023-05-24T05:20:52.287Z,16.08
2023-05-24T05:23:55.083Z,16.27
2023-05-24T05:26:58.211Z,16.33
2023-05-24T05:30:01.211Z,16.75
2023-05-24T05:33:06.416Z,17.32
2023-05-24T05:36:09.222Z,16.50
2023-05-24T05:39:12.218Z,16.81
2023-05-24T05:42:14.959Z,16.56
2023-05-24T05:45:17.711Z,16.64
2023-05-24T05:48:20.430Z,17.47
2023-05-24T05:51:23.125Z,17.43
2023-05-24T05:54:26.903Z,17.20
2023-05-24T05:57:29.729Z,16.89
2023-05-24T06:00:32.510Z,17.18
2023-05-24T06:03:35.484Z,17.14
2023-05-24T06:06:38.399Z,17.34
2023-05-24T06:09:41.587Z,17.75
2023-05-24T06:12:44.817Z,17.44
2023-05-24T06:15:47.939Z,17.46
2023-05-24T06:19:04.671Z,17.50
2023-05-24T06:22:09.156Z,17.94
2023-05-24T06:25:15.201Z,17.65
2023-05-24T06:28:18.290Z,18.07
2023-05-24T06:31:21.466Z,18.11
2023-05-24T06:34:24.675Z,17.84
2023-05-24T06:37:31.810Z,17.33
2023-05-24T06:40:34.603Z,17.52
2023-05-24T06:43:37.506Z,17.27
2023-05-24T06:46:41.207Z,17.11
2023-05-24T06:49:44.217Z,17.32
2023-05-24T06:52:46.985Z,16.91
2023-05-24T06:55:50.007Z,16.49
2023-05-24T06:58:53.160Z,16.24
2023-05-24T07:01:59.509Z,16.31
2023-05-24T07:05:04.055Z,16.26
2023-05-24T07:08:07.491Z,16.72
2023-05-24T07:11:10.659Z,16.73
2023-05-24T07:14:13.723Z,16.80
2023-05-24T07:17:16.695Z,17.37
2023-05-24T07:20:19.816Z,17.26
2023-05-24T07:23:22.738Z,17.12
2023-05-24T07:26:25.780Z,17.14
2023-05-24T07:29:28.918Z,17.04
2023-05-24T07:32:33.558Z,16.63
2023-05-24T07:35:36.815Z,16.48
2023-05-24T07:38:39.979Z,16.21
2023-05-24T07:41:43.062Z,16.44
2023-05-24T07:44:46.199Z,16.21
2023-05-24T07:47:49.082Z,16.02
2023-05-24T07:50:53.195Z,15.97
2023-05-24T07:53:56.523Z,15.93
2023-05-24T07:56:59.569Z,15.90
2023-05-24T08:00:10.507Z,16.58
2023-05-24T08:03:17.847Z,16.56
2023-05-24T08:06:21.121Z,16.70
2023-05-24T08:09:24.106Z,16.63
2023-05-24T08:12:26.942Z,16.83
2023-05-24T08:15:29.913Z,17.00
2023-05-24T08:18:33.577Z,16.94
2023-05-24T08:21:37.695Z,17.12
2023-05-24T08:24:40.957Z,17.75
2023-05-24T08:27:43.944Z,17.81
2023-05-24T08:30:46.869Z,17.92
2023-05-24T08:33:52.718Z,18.59
2023-05-24T08:36:56.430Z,18.10
2023-05-24T08:39:59.967Z,18.19
2023-05-24T08:43:03.304Z,18.23
2023-05-24T08:46:06.961Z,17.86
2023-05-24T08:49:12.941Z,17.41
2023-05-24T08:52:16.824Z,17.52
2023-05-24T08:55:20.134Z,17.77
2023-05-24T08:58:22.918Z,17.89
2023-05-24T09:01:27.748Z,17.85
2023-05-24T09:04:34.362Z,17.99
2023-05-24T09:07:37.712Z,18.35
2023-05-24T09:10:53.174Z,18.29
2023-05-24T09:13:58.300Z,18.61
2023-05-24T09:17:01.482Z,18.66
2023-05-24T09:20:07.540Z,19.14
2023-05-24T09:23:11.533Z,19.32
2023-05-24T09:26:14.576Z,19.67
2023-05-24T09:29:17.396Z,19.90
2023-05-24T09:32:24.603Z,20.35
2023-05-24T09:35:28.668Z,20.61
2023-05-24T09:38:31.703Z,20.96
2023-05-24T09:41:34.696Z,21.11
2023-05-24T09:44:37.722Z,20.68
2023-05-24T09:47:41.723Z,20.48
2023-05-24T09:50:47.816Z,20.38
2023-05-24T09:53:53.050Z,20.41
2023-05-24T09:56:56.263Z,20.75
2023-05-24T10:00:15.040Z,20.03
2023-05-24T10:03:18.163Z,21.32
2023-05-24T10:06:21.951Z,21.23
2023-05-24T10:09:25.613Z,21.27
2023-05-24T10:12:31.685Z,19.90
2023-05-24T10:15:34.721Z,21.10
2023-05-24T10:18:37.654Z,20.11
2023-05-24T10:21:43.557Z,20.14
2023-05-24T10:24:51.206Z,19.74
2023-05-24T10:28:03.899Z,20.74
2023-05-24T10:31:13.833Z,20.28
2023-05-24T10:34:19.138Z,21.06
2023-05-24T10:37:22.037Z,21.23
2023-05-24T10:40:27.948Z,20.44
2023-05-24T10:43:31.087Z,20.42
2023-05-24T10:46:34.333Z,19.68
2023-05-24T10:49:38.257Z,19.88
2023-05-24T10:52:42.315Z,19.65
2023-05-24T10:55:59.051Z,19.32
2023-05-24T10:59:06.616Z,19.91
2023-05-24T11:02:14.231Z,20.31
2023-05-24T11:05:17.532Z,20.73
2023-05-24T11:08:23.674Z,20.95
2023-05-24T11:11:32.065Z,20.92
2023-05-24T11:14:42.984Z,20.63
2023-05-24T11:18:14.285Z,21.07
2023-05-24T11:21:17.550Z,21.51
2023-05-24T11:24:22.386Z,21.38
2023-05-24T11:27:26.034Z,21.46
2023-05-24T11:30:29.281Z,21.24
2023-05-24T11:33:32.525Z,21.56
2023-05-24T11:36:37.836Z,20.80
2023-05-24T11:39:40.808Z,20.69
2023-05-24T11:42:44.955Z,21.16
2023-05-24T11:45:50.261Z,20.53
2023-05-24T11:49:00.209Z,20.19
2023-05-24T11:52:04.271Z,21.41
2023-05-24T11:55:08.273Z,21.08
2023-05-24T11:58:17.549Z,21.05
2023-05-24T12:01:27.760Z,20.79
2023-05-24T12:04:31.577Z,21.88
2023-05-24T12:07:34.882Z,21.26
2023-05-24T12:10:38.954Z,21.42
2023-05-24T12:13:42.005Z,21.59
2023-05-24T12:16:45.839Z,21.81
2023-05-24T12:19:52.496Z,21.82
2023-05-24T12:22:56.833Z,21.66
2023-05-24T12:26:03.421Z,22.28
2023-05-24T12:29:06.427Z,21.18
2023-05-24T12:32:15.208Z,21.57
2023-05-24T12:35:19.011Z,21.28
2023-05-24T12:38:25.882Z,21.50
2023-05-24T12:41:32.032Z,20.93
2023-05-24T12:44:37.036Z,21.01
2023-05-24T12:47:39.830Z,21.11
2023-05-24T12:50:43.106Z,21.12
2023-05-24T12:53:46.897Z,21.32
2023-05-24T12:56:50.649Z,20.71
2023-05-24T12:59:54.208Z,20.54
2023-05-24T13:02:59.369Z,20.78
2023-05-24T13:06:02.622Z,20.69
2023-05-24T13:09:06.946Z,21.16
2023-05-24T13:12:10.364Z,21.37
2023-05-24T13:15:14.387Z,21.99
2023-05-24T13:18:17.664Z,21.39
2023-05-24T13:21:20.970Z,21.55
2023-05-24T13:24:23.780Z,21.38
2023-05-24T13:27:27.031Z,20.90
2023-05-24T13:30:30.392Z,20.77
2023-05-24T13:33:36.255Z,20.47
2023-05-24T13:36:39.691Z,21.85
2023-05-24T13:39:42.940Z,21.65
2023-05-24T13:42:45.934Z,21.28
2023-05-24T13:45:48.887Z,21.25
2023-05-24T13:48:51.927Z,20.52
2023-05-24T13:51:58.228Z,20.53
2023-05-24T13:55:05.141Z,21.14
2023-05-24T13:58:08.219Z,20.91
2023-05-24T14:01:11.231Z,20.56
2023-05-24T14:04:14.322Z,20.47
2023-05-24T14:07:17.182Z,20.05
2023-05-24T14:10:21.586Z,20.04
2023-05-24T14:14:13.753Z,20.13
2023-05-24T14:16:52.277Z,20.44
2023-05-24T14:19:55.512Z,20.27
2023-05-24T14:22:58.676Z,19.71
2023-05-24T14:26:02.198Z,20.26
2023-05-24T14:29:05.941Z,20.03
2023-05-24T14:32:10.295Z,21.19
2023-05-24T14:35:13.082Z,20.80
2023-05-24T14:38:16.091Z,20.92
2023-05-24T14:41:19.129Z,21.05
2023-05-24T14:44:22.065Z,20.97
2023-05-24T14:47:25.239Z,20.97
2023-05-24T14:50:28.067Z,21.28
2023-05-24T14:53:30.997Z,21.11
2023-05-24T14:56:34.293Z,21.14
2023-05-24T14:59:37.316Z,21.10
2023-05-24T15:02:40.399Z,21.26
2023-05-24T15:05:43.638Z,20.73
2023-05-24T15:08:47.068Z,20.67
2023-05-24T15:11:50.448Z,21.04
2023-05-24T15:14:53.550Z,21.22
2023-05-24T15:17:57.672Z,21.30
2023-05-24T15:21:00.711Z,21.15
2023-05-24T15:24:03.745Z,20.76
2023-05-24T15:27:06.766Z,20.73
2023-05-24T15:30:09.603Z,21.15
2023-05-24T15:33:12.708Z,21.10
2023-05-24T15:36:17.664Z,20.85
2023-05-24T15:39:21.581Z,20.81
2023-05-24T15:42:25.666Z,20.70
2023-05-24T15:45:28.657Z,20.37
2023-05-24T15:48:31.870Z,20.61
2023-05-24T15:52:03.070Z,21.28
2023-05-24T15:54:57.740Z,20.87
2023-05-24T15:58:01.444Z,20.88
2023-05-24T16:01:04.717Z,20.98
2023-05-24T16:04:07.933Z,20.63
2023-05-24T16:07:12.336Z,21.31
2023-05-24T16:10:15.302Z,20.92
2023-05-24T16:13:18.258Z,20.56
2023-05-24T16:16:23.999Z,20.70
2023-05-24T16:19:27.100Z,20.30
2023-05-24T16:22:30.488Z,20.35
2023-05-24T16:25:33.233Z,20.04
2023-05-24T16:28:36.550Z,19.68
2023-05-24T16:31:39.719Z,19.22
2023-05-24T16:34:56.080Z,19.55
2023-05-24T16:38:00.234Z,19.53
2023-05-24T16:41:03.409Z,19.67
2023-05-24T16:44:06.762Z,19.23
2023-05-24T16:47:09.850Z,19.28
2023-05-24T16:50:15.800Z,19.60
2023-05-24T16:53:20.853Z,19.33
2023-05-24T16:56:23.917Z,19.31
2023-05-24T16:59:26.930Z,19.44
2023-05-24T17:02:30.099Z,19.47
2023-05-24T17:05:36.166Z,19.22
2023-05-24T17:08:39.179Z,19.08
2023-05-24T17:11:41.932Z,19.13
2023-05-24T17:14:45.870Z,18.92
2023-05-24T17:17:48.761Z,18.60
2023-05-24T17:20:52.381Z,18.22
2023-05-24T17:23:56.316Z,18.52
2023-05-24T17:26:59.701Z,18.16
2023-05-24T17:30:02.994Z,17.76
2023-05-24T17:33:06.146Z,17.53
2023-05-24T17:36:10.080Z,17.48
2023-05-24T17:39:13.354Z,17.52
2023-05-24T17:42:17.924Z,17.04
2023-05-24T17:45:21.297Z,16.76
2023-05-24T17:48:26.288Z,16.72
2023-05-24T17:51:29.390Z,16.54
2023-05-24T17:54:32.378Z,16.29
2023-05-24T17:57:35.874Z,16.28
2023-05-24T18:00:38.936Z,16.13
2023-05-24T18:03:43.182Z,16.09
2023-05-24T18:06:46.378Z,15.81
2023-05-24T18:09:49.257Z,15.74
2023-05-24T18:12:52.251Z,15.58
2023-05-24T18:15:57.471Z,15.35
2023-05-24T18:19:02.996Z,15.43
2023-05-24T18:22:06.560Z,15.21
2023-05-24T18:25:09.956Z,15.18
2023-05-24T18:28:13.312Z,15.20
2023-05-24T18:31:16.647Z,14.95
2023-05-24T18:34:19.984Z,15.04
2023-05-24T18:37:23.580Z,14.82
2023-05-24T18:40:26.759Z,14.85
2023-05-24T18:43:30.110Z,14.77
2023-05-24T18:46:33.559Z,14.68
2023-05-24T18:49:37.327Z,14.71
2023-05-24T18:52:40.697Z,14.66
2023-05-24T18:55:43.789Z,14.61
2023-05-24T18:58:50.209Z,14.48
2023-05-24T19:01:58.579Z,14.40
2023-05-24T19:05:01.795Z,14.38
2023-05-24T19:08:04.788Z,14.33
2023-05-24T19:11:08.131Z,14.24
2023-05-24T19:14:12.917Z,14.24
2023-05-24T19:17:15.849Z,14.23
2023-05-24T19:20:18.809Z,14.21
2023-05-24T19:23:21.816Z,13.98
2023-05-24T19:26:24.804Z,13.95
2023-05-24T19:29:28.354Z,13.90
2023-05-24T19:32:31.584Z,13.92
2023-05-24T19:35:35.402Z,13.86
2023-05-24T19:38:38.310Z,13.81
2023-05-24T19:41:41.719Z,13.77
2023-05-24T19:44:44.636Z,13.77
2023-05-24T19:47:47.489Z,13.74
2023-05-24T19:50:51.049Z,13.67
2023-05-24T19:53:53.746Z,13.66
2023-05-24T19:56:58.215Z,13.56
2023-05-24T20:00:01.346Z,13.64
2023-05-24T20:03:06.458Z,13.54
2023-05-24T20:06:09.259Z,13.45
2023-05-24T20:09:12.372Z,13.51
2023-05-24T20:12:15.435Z,13.42
2023-05-24T20:15:18.414Z,13.43
2023-05-24T20:18:21.144Z,13.47
2023-05-24T20:21:24.101Z,13.34
2023-05-24T20:24:27.207Z,13.31
2023-05-24T20:27:30.057Z,13.26
2023-05-24T20:30:33.814Z,13.24
2023-05-24T20:33:38.581Z,13.19
2023-05-24T20:36:43.561Z,13.15
2023-05-24T20:39:49.700Z,13.12
2023-05-24T20:42:52.976Z,13.08
2023-05-24T20:45:55.932Z,13.04
2023-05-24T20:48:58.834Z,13.06
2023-05-24T20:52:02.037Z,13.05
2023-05-24T20:55:05.237Z,12.98
2023-05-24T20:58:08.104Z,12.99
2023-05-24T21:01:11.211Z,13.01
2023-05-24T21:04:14.814Z,12.93
2023-05-24T21:07:17.718Z,12.91
2023-05-24T21:10:23.321Z,12.94
2023-05-24T21:13:27.390Z,12.92
2023-05-24T21:16:30.419Z,12.83
2023-05-24T21:19:33.134Z,12.86
2023-05-24T21:22:35.988Z,12.86
2023-05-24T21:25:39.164Z,12.81
2023-05-24T21:28:42.167Z,12.77
2023-05-24T21:31:45.105Z,12.74
2023-05-24T21:34:48.006Z,12.84
2023-05-24T21:37:50.951Z,12.80
2023-05-24T21:40:53.908Z,12.72
2023-05-24T21:43:56.821Z,12.68
2023-05-24T21:46:59.619Z,12.70
2023-05-24T21:50:02.500Z,12.68
2023-05-24T21:53:05.335Z,12.67
2023-05-24T21:56:08.205Z,12.63
2023-05-24T21:59:11.035Z,12.66
2023-05-24T22:02:15.085Z,12.61
2023-05-24T22:05:18.620Z,12.59
2023-05-24T22:08:21.567Z,12.55
2023-05-24T22:11:24.547Z,12.54
2023-05-24T22:14:27.561Z,12.54
2023-05-24T22:17:32.985Z,12.57
2023-05-24T22:20:36.985Z,12.52
2023-05-24T22:23:40.110Z,12.55
2023-05-24T22:26:47.373Z,12.49
2023-05-24T22:29:50.298Z,12.56
2023-05-24T22:32:53.375Z,12.59
2023-05-24T22:35:56.201Z,12.51
2023-05-24T22:39:00.156Z,12.56
2023-05-24T22:42:03.234Z,12.50
2023-05-24T22:45:07.255Z,12.52
2023-05-24T22:48:10.734Z,12.46
2023-05-24T22:51:13.795Z,12.47
2023-05-24T22:54:17.349Z,12.46
2023-05-24T22:57:23.376Z,12.45
2023-05-24T23:00:26.941Z,12.36
2023-05-24T23:03:29.912Z,12.38
2023-05-24T23:06:32.605Z,12.41
2023-05-24T23:09:35.621Z,12.31
2023-05-24T23:12:42.704Z,12.33
2023-05-24T23:15:45.610Z,12.16
2023-05-24T23:18:48.402Z,12.30
2023-05-24T23:21:52.610Z,12.27
2023-05-24T23:24:55.575Z,12.32
2023-05-24T23:27:58.342Z,12.32
2023-05-24T23:31:01.303Z,12.36
2023-05-24T23:34:04.917Z,12.35
2023-05-24T23:37:08.077Z,12.30
2023-05-24T23:40:11.682Z,12.35
2023-05-24T23:43:14.691Z,12.21
2023-05-24T23:46:17.647Z,12.36
2023-05-24T23:49:20.970Z,12.38
2023-05-24T23:52:25.448Z,12.38
2023-05-24T23:55:28.489Z,12.39
2023-05-24T23:58:32.382Z,12.46
